createdAt,value
2023-01-13T00:01:15.771Z,51.97
2023-01-13T00:03:44.164Z,54.20
2023-01-13T00:06:13.745Z,54.53
2023-01-13T00:08:42.177Z,52.72
2023-01-13T00:11:10.730Z,50.85
2023-01-13T00:13:38.840Z,50.13
2023-01-13T00:16:10.232Z,52.88
2023-01-13T00:18:39.716Z,51.58
2023-01-13T00:21:08.792Z,57.67
2023-01-13T00:23:37.061Z,45.33
2023-01-13T00:26:06.060Z,49.25
2023-01-13T00:28:34.209Z,48.55
2023-01-13T00:31:05.543Z,53.05
2023-01-13T00:33:34.176Z,49.33
2023-01-13T00:36:03.989Z,47.25
2023-01-13T00:38:32.416Z,47.42
2023-01-13T00:41:00.941Z,50.67
2023-01-13T00:43:28.782Z,49.90
2023-01-13T00:45:56.733Z,50.58
2023-01-13T00:48:25.506Z,48.33
2023-01-13T00:50:57.028Z,47.53
2023-01-13T00:53:26.619Z,51.20
2023-01-13T00:56:00.209Z,51.22
2023-01-13T00:58:28.098Z,47.45
2023-01-13T01:00:56.000Z,45.38
2023-01-13T01:03:23.949Z,50.25
2023-01-13T01:05:51.745Z,52.22
2023-01-13T01:08:20.351Z,42.00
2023-01-13T01:10:49.746Z,47.20
2023-01-13T01:13:17.725Z,45.85
2023-01-13T01:15:45.733Z,57.38
2023-01-13T01:18:13.570Z,48.78
2023-01-13T01:20:41.397Z,48.95
2023-01-13T01:23:09.310Z,45.55
2023-01-13T01:25:37.889Z,49.80
2023-01-13T01:28:07.228Z,49.00
2023-01-13T01:30:35.246Z,44.70
2023-01-13T01:33:05.280Z,43.55
2023-01-13T01:35:33.242Z,51.83
2023-01-13T01:38:01.104Z,41.25
2023-01-13T01:40:29.295Z,40.72
2023-01-13T01:43:14.378Z,40.40
2023-01-13T01:45:43.607Z,40.72
2023-01-13T01:48:11.777Z,38.58
2023-01-13T01:50:40.391Z,43.47
2023-01-13T01:53:09.708Z,36.67
2023-01-13T01:55:38.257Z,38.95
2023-01-13T01:58:10.921Z,39.67
2023-01-13T02:00:38.978Z,37.58
2023-01-13T02:03:08.548Z,40.08
2023-01-13T02:05:37.159Z,44.55
2023-01-13T02:08:05.424Z,47.10
2023-01-13T02:10:33.632Z,39.50
2023-01-13T02:13:01.813Z,44.20
2023-01-13T02:15:34.353Z,42.22
2023-01-13T02:18:17.368Z,43.35
2023-01-13T02:21:02.649Z,41.88
2023-01-13T02:24:11.786Z,48.65
2023-01-13T02:26:59.967Z,40.35
2023-01-13T02:30:00.200Z,38.10
2023-01-13T02:32:34.916Z,38.30
2023-01-13T02:35:06.392Z,38.03
2023-01-13T02:37:36.871Z,40.05
2023-01-13T02:40:08.942Z,37.88
2023-01-13T02:42:56.660Z,34.47
2023-01-13T02:45:26.457Z,33.08
2023-01-13T02:47:57.509Z,35.03
2023-01-13T02:50:28.568Z,31.48
2023-01-13T02:52:59.013Z,40.90
2023-01-13T02:55:30.231Z,30.80
2023-01-13T02:57:59.735Z,30.95
2023-01-13T03:00:28.119Z,31.85
2023-01-13T03:02:57.939Z,35.10
2023-01-13T03:05:26.715Z,30.13
2023-01-13T03:08:15.801Z,31.27
2023-01-13T03:10:57.825Z,33.55
2023-01-13T03:13:35.905Z,29.65
2023-01-13T03:16:09.272Z,37.83
2023-01-13T03:18:41.856Z,30.70
2023-01-13T03:21:14.209Z,31.08
2023-01-13T03:23:44.558Z,35.67
2023-01-13T03:26:15.427Z,33.53
2023-01-13T03:28:45.699Z,35.80
2023-01-13T03:31:16.084Z,34.30
2023-01-13T03:33:47.016Z,37.83
2023-01-13T03:36:16.185Z,31.63
2023-01-13T03:38:45.398Z,31.00
2023-01-13T03:41:16.881Z,29.42
2023-01-13T03:44:04.871Z,34.30
2023-01-13T03:46:37.344Z,35.60
2023-01-13T03:49:08.669Z,34.05
2023-01-13T03:51:39.831Z,31.48
2023-01-13T03:54:10.081Z,31.70
2023-01-13T03:56:40.235Z,34.08
2023-01-13T03:59:11.780Z,32.83
2023-01-13T04:01:43.644Z,32.20
2023-01-13T04:04:15.694Z,34.55
2023-01-13T04:06:51.928Z,31.83
2023-01-13T04:09:25.005Z,33.88
2023-01-13T04:12:02.260Z,34.50
2023-01-13T04:14:30.112Z,37.35
2023-01-13T04:16:58.227Z,35.97
2023-01-13T04:19:27.627Z,35.67
2023-01-13T04:21:55.464Z,36.15
2023-01-13T04:24:23.435Z,36.22
2023-01-13T04:26:51.321Z,33.78
2023-01-13T04:29:19.215Z,33.88
2023-01-13T04:31:47.153Z,29.98
2023-01-13T04:34:15.071Z,32.97
2023-01-13T04:36:45.073Z,33.35
2023-01-13T04:39:15.404Z,35.45
2023-01-13T04:42:06.086Z,36.25
2023-01-13T04:44:35.483Z,30.98
2023-01-13T04:47:03.723Z,27.85
2023-01-13T04:49:31.693Z,30.05
2023-01-13T04:52:03.861Z,31.33
2023-01-13T04:54:31.810Z,34.13
2023-01-13T04:56:59.940Z,37.65
2023-01-13T04:59:27.837Z,33.55
2023-01-13T05:01:56.041Z,32.28
2023-01-13T05:04:24.040Z,36.00
2023-01-13T05:06:59.612Z,38.60
2023-01-13T05:09:28.814Z,35.40
2023-01-13T05:12:14.145Z,36.47
2023-01-13T05:14:59.480Z,30.63
2023-01-13T05:17:27.524Z,31.63
2023-01-13T05:20:00.274Z,33.13
2023-01-13T05:22:45.554Z,32.45
2023-01-13T05:25:25.150Z,31.48
2023-01-13T05:27:54.297Z,31.08
2023-01-13T05:30:22.616Z,33.92
2023-01-13T05:32:50.494Z,33.95
2023-01-13T05:35:18.489Z,36.50
2023-01-13T05:37:47.012Z,32.67
2023-01-13T05:40:35.962Z,34.70
2023-01-13T05:45:51.849Z,32.50
2023-01-13T05:48:20.359Z,32.22
2023-01-13T05:50:49.324Z,33.03
2023-01-13T05:53:17.901Z,29.95
2023-01-13T05:55:47.243Z,29.95
2023-01-13T05:58:15.931Z,32.60
2023-01-13T06:00:43.864Z,31.83
2023-01-13T06:03:12.273Z,37.42
2023-01-13T06:05:40.322Z,32.53
2023-01-13T06:08:08.712Z,34.85
2023-01-13T06:10:37.021Z,28.50
2023-01-13T06:13:06.622Z,31.48
2023-01-13T06:15:34.469Z,33.90
2023-01-13T06:18:03.128Z,47.00
2023-01-13T06:20:31.152Z,36.03
2023-01-13T06:22:59.102Z,39.40
2023-01-13T06:25:30.808Z,41.80
2023-01-13T06:28:00.473Z,39.35
2023-01-13T06:30:32.557Z,38.97
2023-01-13T06:33:01.789Z,40.97
2023-01-13T06:35:31.099Z,41.83
2023-01-13T06:38:00.480Z,32.70
2023-01-13T06:40:28.362Z,39.03
2023-01-13T06:43:16.405Z,39.47
2023-01-13T06:45:47.762Z,43.03
2023-01-13T06:48:16.056Z,43.08
2023-01-13T06:50:44.122Z,34.53
2023-01-13T06:53:12.390Z,35.45
2023-01-13T06:55:41.787Z,34.42
2023-01-13T06:58:10.655Z,33.33
2023-01-13T07:00:39.234Z,41.38
2023-01-13T07:03:12.965Z,33.03
2023-01-13T07:05:41.235Z,34.88
2023-01-13T07:08:09.656Z,58.75
2023-01-13T07:10:38.117Z,40.10
2023-01-13T07:13:23.789Z,36.83
2023-01-13T07:15:58.373Z,36.75
2023-01-13T07:18:28.624Z,33.80
2023-01-13T07:20:57.756Z,35.28
2023-01-13T07:23:25.798Z,32.28
2023-01-13T07:25:55.612Z,36.22
2023-01-13T07:28:23.647Z,86.68
2023-01-13T07:30:51.607Z,38.85
2023-01-13T07:33:19.673Z,36.40
2023-01-13T07:35:49.360Z,33.88
2023-01-13T07:38:17.305Z,34.70
2023-01-13T07:40:45.306Z,37.50
2023-01-13T07:43:31.171Z,36.33
2023-01-13T07:45:59.951Z,33.55
2023-01-13T07:48:28.169Z,34.90
2023-01-13T07:50:57.537Z,36.85
2023-01-13T07:53:26.218Z,38.78
2023-01-13T07:55:56.959Z,38.13
2023-01-13T07:58:25.252Z,29.85
2023-01-13T08:00:53.349Z,36.15
2023-01-13T08:03:23.911Z,35.50
2023-01-13T08:05:52.087Z,42.60
2023-01-13T08:08:21.524Z,28.25
2023-01-13T08:10:49.639Z,28.65
2023-01-13T08:13:18.331Z,28.27
2023-01-13T08:15:47.120Z,25.77
2023-01-13T08:18:16.057Z,24.60
2023-01-13T08:20:44.306Z,27.77
2023-01-13T08:23:12.195Z,28.27
2023-01-13T08:25:41.575Z,29.05
2023-01-13T08:28:09.700Z,22.80
2023-01-13T08:30:38.128Z,25.83
2023-01-13T08:33:07.663Z,26.13
2023-01-13T08:35:36.719Z,26.27
2023-01-13T08:38:04.662Z,23.48
2023-01-13T08:40:35.202Z,24.40
2023-01-13T08:43:04.577Z,27.40
2023-01-13T08:45:32.458Z,27.88
2023-01-13T08:48:00.955Z,26.30
2023-01-13T08:50:28.957Z,21.00
2023-01-13T08:52:57.103Z,25.25
2023-01-13T08:55:25.009Z,20.70
2023-01-13T08:57:54.487Z,21.75
2023-01-13T09:00:25.587Z,25.58
2023-01-13T09:02:53.429Z,22.55
2023-01-13T09:05:22.230Z,23.60
2023-01-13T09:07:50.309Z,25.27
2023-01-13T09:10:18.253Z,22.02
2023-01-13T09:13:04.394Z,23.10
2023-01-13T09:15:33.950Z,33.60
2023-01-13T09:18:02.776Z,26.00
2023-01-13T09:20:30.643Z,26.88
2023-01-13T09:22:58.578Z,27.75
2023-01-13T09:25:26.520Z,26.85
2023-01-13T09:27:54.619Z,30.58
2023-01-13T09:30:22.855Z,28.85
2023-01-13T09:33:12.479Z,30.33
2023-01-13T09:35:39.765Z,28.38
2023-01-13T09:38:08.424Z,31.65
2023-01-13T09:40:38.190Z,27.33
2023-01-13T09:43:33.374Z,27.33
2023-01-13T09:46:02.985Z,24.63
2023-01-13T09:48:34.066Z,25.90
2023-01-13T09:51:06.910Z,27.35
2023-01-13T09:53:35.825Z,29.95
2023-01-13T09:56:03.713Z,32.78
2023-01-13T09:58:31.628Z,31.42
2023-01-13T10:01:05.792Z,29.27
2023-01-13T10:03:36.451Z,27.98
2023-01-13T10:06:07.616Z,30.77
2023-01-13T10:08:39.138Z,30.33
2023-01-13T10:11:34.809Z,30.40
2023-01-13T10:14:02.878Z,28.90
2023-01-13T10:16:34.564Z,32.08
2023-01-13T10:19:07.275Z,36.67
2023-01-13T10:21:57.825Z,30.80
2023-01-13T10:24:30.353Z,30.95
2023-01-13T10:27:01.019Z,39.03
2023-01-13T10:29:30.169Z,32.42
2023-01-13T10:31:59.650Z,38.38
2023-01-13T10:34:29.870Z,31.60
2023-01-13T10:37:03.116Z,34.92
2023-01-13T10:39:40.188Z,32.92
2023-01-13T10:42:13.826Z,34.38
2023-01-13T10:44:49.261Z,33.80
2023-01-13T10:47:24.891Z,37.58
2023-01-13T10:50:02.339Z,36.60
2023-01-13T10:52:31.812Z,34.58
2023-01-13T10:54:59.673Z,36.15
2023-01-13T10:57:28.132Z,39.28
2023-01-13T10:59:56.447Z,36.67
2023-01-13T11:02:28.396Z,42.25
2023-01-13T11:05:11.664Z,35.75
2023-01-13T11:07:47.201Z,36.00
2023-01-13T11:10:19.106Z,36.67
2023-01-13T11:12:52.323Z,39.10
2023-01-13T11:15:23.328Z,37.75
2023-01-13T11:18:00.506Z,36.55
2023-01-13T11:20:33.787Z,40.72
2023-01-13T11:23:05.356Z,39.08
2023-01-13T11:25:41.790Z,42.30
2023-01-13T11:28:17.621Z,38.25
2023-01-13T11:30:50.685Z,46.60
2023-01-13T11:33:25.351Z,45.83
2023-01-13T11:35:59.800Z,40.95
2023-01-13T11:38:32.416Z,42.20
2023-01-13T11:41:05.782Z,40.40
2023-01-13T11:43:35.833Z,42.88
2023-01-13T11:46:04.208Z,37.67
2023-01-13T11:48:33.894Z,44.85
2023-01-13T11:51:04.715Z,45.40
2023-01-13T11:53:45.261Z,45.33
2023-01-13T11:56:27.356Z,43.30
2023-01-13T11:59:13.670Z,44.60
2023-01-13T12:01:50.301Z,41.47
2023-01-13T12:04:25.372Z,45.40
2023-01-13T12:06:58.627Z,45.78
2023-01-13T12:09:31.532Z,46.15
2023-01-13T12:12:22.391Z,46.42
2023-01-13T12:15:03.691Z,44.38
2023-01-13T12:17:36.266Z,50.47
2023-01-13T12:20:13.826Z,49.55
2023-01-13T12:22:43.584Z,47.53
2023-01-13T12:25:17.384Z,51.25
2023-01-13T12:27:47.764Z,50.35
2023-01-13T12:30:22.776Z,49.83
2023-01-13T12:32:51.652Z,47.50
2023-01-13T12:35:24.079Z,51.50
2023-01-13T12:37:55.699Z,55.55
2023-01-13T12:40:34.863Z,52.47
2023-01-13T12:43:25.271Z,52.63
2023-01-13T12:45:53.450Z,51.90
2023-01-13T12:48:41.764Z,56.50
2023-01-13T12:51:22.709Z,50.20
2023-01-13T12:53:53.362Z,49.22
2023-01-13T12:56:24.191Z,48.10
2023-01-13T12:58:52.328Z,48.63
2023-01-13T13:01:35.173Z,58.40
2023-01-13T13:04:12.952Z,52.30
2023-01-13T13:06:42.866Z,48.45
2023-01-13T13:09:18.952Z,50.85
2023-01-13T13:12:06.087Z,52.60
2023-01-13T13:14:54.435Z,52.10
2023-01-13T13:17:40.372Z,49.97
2023-01-13T13:20:29.440Z,48.63
2023-01-13T13:22:57.409Z,50.92
2023-01-13T13:25:26.443Z,49.47
2023-01-13T13:28:09.051Z,48.92
2023-01-13T13:30:37.754Z,45.97
2023-01-13T13:33:17.671Z,49.38
2023-01-13T13:35:53.011Z,55.38
2023-01-13T13:38:43.522Z,45.92
2023-01-13T13:41:32.293Z,43.55
2023-01-13T13:44:21.557Z,39.78
2023-01-13T13:46:51.304Z,40.40
2023-01-13T13:49:22.691Z,44.97
2023-01-13T13:51:56.866Z,40.30
2023-01-13T13:54:24.905Z,37.42
2023-01-13T13:56:55.312Z,39.42
2023-01-13T13:59:26.114Z,42.13
2023-01-13T14:02:01.606Z,44.15
2023-01-13T14:04:31.199Z,37.05
2023-01-13T14:07:00.594Z,38.42
2023-01-13T14:09:29.798Z,43.15
2023-01-13T14:11:59.071Z,46.33
2023-01-13T14:14:29.114Z,41.75
2023-01-13T14:16:57.301Z,37.53
2023-01-13T14:19:31.117Z,41.72
2023-01-13T14:22:01.948Z,41.97
2023-01-13T14:24:30.609Z,42.38
2023-01-13T14:27:08.632Z,43.15
2023-01-13T14:29:38.422Z,42.00
2023-01-13T14:32:07.394Z,45.63
2023-01-13T14:34:36.059Z,43.97
2023-01-13T14:37:04.069Z,43.00
2023-01-13T14:39:38.611Z,42.58
2023-01-13T14:42:12.355Z,35.97
2023-01-13T14:44:44.841Z,42.45
2023-01-13T14:47:20.735Z,47.00
2023-01-13T14:49:54.944Z,43.90
2023-01-13T14:52:24.474Z,39.47
2023-01-13T14:54:52.882Z,46.90
2023-01-13T14:57:25.270Z,44.65
2023-01-13T15:00:00.185Z,45.42
2023-01-13T15:02:49.180Z,42.65
2023-01-13T15:05:37.070Z,54.53
2023-01-13T15:08:09.202Z,55.25
2023-01-13T15:10:38.820Z,59.05
2023-01-13T15:13:07.657Z,51.20
2023-01-13T15:15:37.872Z,48.65
2023-01-13T15:18:12.459Z,50.55
2023-01-13T15:20:40.502Z,49.63
2023-01-13T15:23:15.263Z,53.08
2023-01-13T15:25:44.669Z,51.92
2023-01-13T15:28:20.981Z,52.53
2023-01-13T15:30:52.363Z,51.08
2023-01-13T15:33:21.270Z,55.17
2023-01-13T15:35:50.754Z,53.80
2023-01-13T15:38:20.195Z,59.42
2023-01-13T15:40:54.309Z,50.35
2023-01-13T15:43:57.708Z,52.42
2023-01-13T15:46:40.054Z,51.72
2023-01-13T15:49:12.763Z,50.30
2023-01-13T15:51:40.972Z,50.15
2023-01-13T15:54:09.085Z,49.88
2023-01-13T15:56:37.489Z,48.90
2023-01-13T15:59:05.790Z,45.03
2023-01-13T16:01:35.037Z,49.08
2023-01-13T16:04:03.092Z,52.65
2023-01-13T16:06:32.635Z,60.83
2023-01-13T16:09:02.033Z,52.65
2023-01-13T16:11:31.622Z,47.13
2023-01-13T16:13:59.730Z,51.92
2023-01-13T16:16:29.170Z,48.03
2023-01-13T16:18:58.494Z,47.35
2023-01-13T16:21:26.586Z,43.67
2023-01-13T16:23:54.425Z,45.42
2023-01-13T16:26:23.691Z,45.55
2023-01-13T16:28:52.221Z,51.42
2023-01-13T16:31:23.556Z,48.40
2023-01-13T16:33:51.980Z,47.47
2023-01-13T16:36:21.949Z,43.95
2023-01-13T16:38:50.309Z,45.08
2023-01-13T16:41:19.358Z,40.88
2023-01-13T16:43:47.555Z,43.05
2023-01-13T16:46:19.825Z,45.72
2023-01-13T16:48:47.836Z,43.72
2023-01-13T16:51:15.759Z,44.00
2023-01-13T16:53:45.472Z,43.78
2023-01-13T16:56:20.638Z,46.45
2023-01-13T16:58:49.599Z,43.42
2023-01-13T17:01:22.537Z,45.08
2023-01-13T17:03:51.533Z,47.30
2023-01-13T17:06:21.325Z,41.40
2023-01-13T17:08:53.015Z,43.92
2023-01-13T17:11:22.067Z,45.10
2023-01-13T17:13:49.950Z,44.42
2023-01-13T17:16:22.153Z,47.05
2023-01-13T17:18:50.181Z,43.47
2023-01-13T17:21:18.361Z,48.13
2023-01-13T17:23:46.405Z,44.03
2023-01-13T17:26:26.965Z,37.63
2023-01-13T17:28:54.853Z,52.85
2023-01-13T17:31:23.570Z,44.85
2023-01-13T17:33:51.519Z,39.13
2023-01-13T17:36:19.439Z,42.95
2023-01-13T17:38:47.366Z,36.20
2023-01-13T17:41:16.140Z,41.25
2023-01-13T17:43:45.464Z,37.58
2023-01-13T17:46:13.979Z,83.55
2023-01-13T17:48:41.859Z,44.13
2023-01-13T17:51:12.431Z,39.67
2023-01-13T17:53:41.441Z,39.47
2023-01-13T17:56:10.114Z,51.17
2023-01-13T17:58:38.159Z,42.10
2023-01-13T18:01:11.509Z,40.40
2023-01-13T18:03:40.418Z,38.58
2023-01-13T18:06:09.146Z,40.35
2023-01-13T18:08:37.348Z,66.30
2023-01-13T18:11:05.403Z,45.20
2023-01-13T18:13:34.624Z,45.53
2023-01-13T18:16:05.071Z,51.45
2023-01-13T18:18:35.574Z,49.47
2023-01-13T18:21:21.714Z,48.75
2023-01-13T18:24:07.867Z,42.15
2023-01-13T18:26:53.418Z,47.22
2023-01-13T18:29:22.139Z,50.03
2023-01-13T18:31:54.886Z,53.10
2023-01-13T18:34:25.092Z,45.30
2023-01-13T18:36:53.391Z,38.40
2023-01-13T18:39:21.677Z,53.92
2023-01-13T18:42:07.318Z,62.42
2023-01-13T18:44:35.223Z,162.50
2023-01-13T18:47:04.083Z,224.95
2023-01-13T18:49:33.667Z,59.20
2023-01-13T18:52:01.945Z,61.92
2023-01-13T18:54:30.424Z,56.75
2023-01-13T18:56:58.482Z,52.72
2023-01-13T18:59:26.600Z,51.90
2023-01-13T19:01:54.935Z,44.72
2023-01-13T19:04:23.744Z,48.30
2023-01-13T19:06:53.769Z,46.15
2023-01-13T19:09:24.915Z,54.65
2023-01-13T19:11:53.009Z,48.75
2023-01-13T19:14:35.058Z,47.83
2023-01-13T19:17:03.132Z,44.35
2023-01-13T19:19:31.368Z,56.38
2023-01-13T19:22:00.767Z,48.03
2023-01-13T19:24:28.594Z,47.00
2023-01-13T19:26:56.784Z,43.22
2023-01-13T19:29:25.527Z,54.45
2023-01-13T19:31:53.958Z,52.78
2023-01-13T19:34:23.208Z,50.40
2023-01-13T19:36:52.245Z,70.43
2023-01-13T19:39:22.204Z,51.92
2023-01-13T19:42:07.605Z,44.40
2023-01-13T19:44:52.945Z,45.75
2023-01-13T19:47:20.907Z,48.20
2023-01-13T19:49:48.927Z,50.63
2023-01-13T19:52:16.884Z,46.42
2023-01-13T19:54:47.443Z,44.25
2023-01-13T19:57:16.205Z,43.45
2023-01-13T19:59:44.216Z,39.95
2023-01-13T20:02:15.596Z,44.28
2023-01-13T20:04:45.233Z,50.38
2023-01-13T20:07:14.645Z,46.75
2023-01-13T20:09:44.054Z,50.35
2023-01-13T20:12:14.076Z,45.78
2023-01-13T20:14:45.337Z,47.88
2023-01-13T20:17:13.511Z,50.97
2023-01-13T20:19:41.413Z,53.33
2023-01-13T20:22:09.356Z,51.33
2023-01-13T20:24:37.310Z,48.83
2023-01-13T20:27:05.517Z,51.70
2023-01-13T20:29:35.292Z,51.55
2023-01-13T20:32:03.366Z,55.10
2023-01-13T20:34:31.499Z,94.72
2023-01-13T20:37:01.556Z,74.15
2023-01-13T20:39:29.573Z,57.42
2023-01-13T20:42:14.805Z,48.65
2023-01-13T20:44:45.049Z,53.58
2023-01-13T20:47:14.642Z,58.20
2023-01-13T20:49:42.712Z,59.53
2023-01-13T20:52:10.805Z,61.90
2023-01-13T20:54:39.509Z,59.58
2023-01-13T20:57:10.057Z,60.45
2023-01-13T20:59:38.498Z,62.58
2023-01-13T21:02:09.229Z,71.72
2023-01-13T21:04:37.170Z,60.92
2023-01-13T21:07:05.731Z,55.22
2023-01-13T21:09:33.727Z,56.17
2023-01-13T21:12:19.036Z,55.38
2023-01-13T21:15:04.207Z,60.28
2023-01-13T21:17:53.665Z,56.53
2023-01-13T21:20:21.988Z,78.22
2023-01-13T21:22:50.623Z,74.43
2023-01-13T21:25:19.235Z,70.28
2023-01-13T21:27:47.189Z,71.93
2023-01-13T21:30:17.422Z,73.05
2023-01-13T21:32:47.510Z,74.22
2023-01-13T21:35:15.804Z,64.53
2023-01-13T21:37:44.614Z,66.47
2023-01-13T21:40:13.894Z,56.40
2023-01-13T21:42:59.573Z,68.10
2023-01-13T21:45:44.552Z,64.63
2023-01-13T21:48:13.874Z,58.83
2023-01-13T21:50:42.341Z,61.72
2023-01-13T21:53:10.290Z,64.75
2023-01-13T21:55:38.519Z,68.35
2023-01-13T21:58:10.959Z,68.32
2023-01-13T22:00:39.799Z,52.97
2023-01-13T22:03:08.733Z,53.20
2023-01-13T22:05:38.303Z,57.55
2023-01-13T22:08:06.537Z,55.97
2023-01-13T22:10:34.723Z,60.50
2023-01-13T22:13:23.482Z,57.17
2023-01-13T22:15:57.757Z,51.97
2023-01-13T22:18:25.700Z,58.40
2023-01-13T22:20:54.999Z,59.47
2023-01-13T22:23:23.332Z,55.33
2023-01-13T22:25:51.417Z,58.03
2023-01-13T22:28:24.121Z,60.38
2023-01-13T22:30:53.524Z,55.92
2023-01-13T22:33:22.101Z,54.58
2023-01-13T22:35:56.512Z,57.35
2023-01-13T22:38:25.498Z,55.13
2023-01-13T22:40:57.710Z,58.47
2023-01-13T22:43:25.975Z,63.45
2023-01-13T22:46:00.257Z,57.25
2023-01-13T22:48:28.229Z,57.88
2023-01-13T22:50:57.719Z,54.47
2023-01-13T22:53:25.711Z,56.58
2023-01-13T22:55:56.962Z,57.05
2023-01-13T22:58:25.734Z,57.58
2023-01-13T23:00:56.026Z,54.20
2023-01-13T23:03:24.586Z,50.97
2023-01-13T23:05:59.057Z,55.67
2023-01-13T23:08:27.205Z,57.58
2023-01-13T23:11:00.988Z,87.50
2023-01-13T23:13:29.167Z,62.22
2023-01-13T23:15:57.177Z,62.85
2023-01-13T23:18:26.511Z,54.78
2023-01-13T23:20:54.764Z,53.97
2023-01-13T23:23:25.017Z,58.85
2023-01-13T23:25:55.503Z,56.30
2023-01-13T23:28:24.002Z,57.15
2023-01-13T23:30:53.741Z,59.05
2023-01-13T23:33:22.519Z,55.08
2023-01-13T23:35:56.723Z,59.00
2023-01-13T23:38:26.139Z,61.25
2023-01-13T23:40:54.110Z,54.08
2023-01-13T23:43:22.675Z,61.42
2023-01-13T23:45:50.758Z,60.10
2023-01-13T23:48:18.767Z,56.13
2023-01-13T23:50:57.348Z,82.55
2023-01-13T23:53:32.043Z,70.28
2023-01-13T23:56:00.273Z,59.88
2023-01-13T23:58:28.486Z,64.57
